Manhattan Regional Airport
KMHK : rendu visible

Aérodrome :











RETROUVEZ-NOUS SUR...

 
LOGIN :

S'inscrire | Disclaimer

   EN    FR    IT 

 









Légende :    VFR   VFR Marginal   IFR   IFR Intensif   IFR Très Intensif
Visi : 
Plafond : 
>= 8 km
>= 3000ft
5 à 8 km
1000 à 3000 ft
1500m à 5 km
500 à 1000 ft
800 à 1500m
200 à 500 ft
< 800m
< 200 ft
Symboles :   Orages  Brouillard  Fortes neiges  Fortes précipitations  Vent > 20 kt







- Altitude de l'aérodrome : 1057 ft
- Code IATA : MHK


KMHK - Manhattan Regional

DERNIER METAR :
  • 240352Z AUTO 15010KT 10SM OVC080 23/20 A2989 RMK AO2 SLP116 T02280200

METARs EXPIRÉS :
  • 240252Z AUTO 13007KT 10SM FEW049 OVC060 22/18 A2992 RMK AO2 LTG DSNT N SLP124 T02170183 55007
  • 240221Z AUTO 11007KT 10SM SCT022 BKN041 OVC055 21/17 A2990 RMK AO2 LTG DSNT N AND NW T02110172
  • 240211Z AUTO 10009KT 10SM SCT020 BKN024 OVC055 21/17 A2990 RMK AO2 LTG DSNT N AND NW T02110172
  • 240152Z 11008KT 10SM OVC019 21/17 A2990 RMK AO2 LTG DSNT W-N SLP120 T02110172

TAF KMHK
Valide du 24 à 03h jusqu'au 25 à 00h UTC


240314Z 2403/2424 13014KT P6SM VCTS BKN035CB
FM240500 14012KT 5SM -SHRA VCTS BKN035CB WS015/19040KT
FM241100 19010KT P6SM VCSH OVC029
FM241800 21009KT P6SM BKN035
FIR KZKC / Amérique du Nord



MET'MAP, la Météo Aéronautique d'un coup d'oeil ! - Copyright ORBIFLY Décembre 2007 - Disclaimer

ORBIFLY MET'MAP TEAM :

Programmation & Développement : Alexandra Zaïnal
Conception & Développement : Baudouin d'Aumeries
Co-Programmation & Développement : Marc-Olivier Méhu
Soutien technique & logistique : Manuel Goepfert

Contact : metmap@orbifly.com




SOURCES & CREDITS :

   NOAA       Earth
Advisory